sensor_id;sensor_type;location;lat;lon;timestamp;pressure;altitude;pressure_sealevel;temperature;humidity
9077;BME280;4574;51.072;17.174;2022-08-21T00:00:45;99787.56;;;21.19;nan
9077;BME280;4574;51.072;17.174;2022-08-21T00:03:14;99775.06;;;21.07;nan
9077;BME280;4574;51.072;17.174;2022-08-21T00:05:44;99771.56;;;21.06;nan
9077;BME280;4574;51.072;17.174;2022-08-21T00:08:13;99773.41;;;20.88;nan
9077;BME280;4574;51.072;17.174;2022-08-21T00:10:44;99761.44;;;20.84;nan
9077;BME280;4574;51.072;17.174;2022-08-21T00:13:13;99766.09;;;20.95;nan
9077;BME280;4574;51.072;17.174;2022-08-21T00:15:44;99780.09;;;20.85;nan
9077;BME280;4574;51.072;17.174;2022-08-21T00:18:13;99775.59;;;20.97;nan
9077;BME280;4574;51.072;17.174;2022-08-21T00:20:43;99767.38;;;20.92;nan
9077;BME280;4574;51.072;17.174;2022-08-21T00:23:13;99769.31;;;20.85;nan
9077;BME280;4574;51.072;17.174;2022-08-21T00:25:44;99760.34;;;20.91;nan
9077;BME280;4574;51.072;17.174;2022-08-21T00:28:13;99763.34;;;20.83;nan
9077;BME280;4574;51.072;17.174;2022-08-21T00:30:42;99765.78;;;20.85;nan
9077;BME280;4574;51.072;17.174;2022-08-21T00:33:12;99763.16;;;20.78;nan
9077;BME280;4574;51.072;17.174;2022-08-21T00:35:42;99769.47;;;20.66;nan
9077;BME280;4574;51.072;17.174;2022-08-21T00:38:11;99771.06;;;20.73;nan
9077;BME280;4574;51.072;17.174;2022-08-21T00:40:44;99772.72;;;20.74;nan
9077;BME280;4574;51.072;17.174;2022-08-21T00:43:15;99775.16;;;20.76;nan
9077;BME280;4574;51.072;17.174;2022-08-21T00:45:43;99769.88;;;20.69;nan
9077;BME280;4574;51.072;17.174;2022-08-21T00:48:12;99757.91;;;20.65;nan
9077;BME280;4574;51.072;17.174;2022-08-21T00:50:44;99776.06;;;20.70;nan
9077;BME280;4574;51.072;17.174;2022-08-21T00:53:15;99771.41;;;20.59;nan
9077;BME280;4574;51.072;17.174;2022-08-21T00:55:45;99764.22;;;20.53;nan
9077;BME280;4574;51.072;17.174;2022-08-21T00:58:15;99764.63;;;20.56;nan
9077;BME280;4574;51.072;17.174;2022-08-21T01:00:46;99768.94;;;20.57;nan
9077;BME280;4574;51.072;17.174;2022-08-21T01:03:18;99758.91;;;20.46;nan
9077;BME280;4574;51.072;17.174;2022-08-21T01:05:50;99761.78;;;20.51;nan
9077;BME280;4574;51.072;17.174;2022-08-21T01:08:20;99765.19;;;20.40;nan
9077;BME280;4574;51.072;17.174;2022-08-21T01:10:52;99745.31;;;20.41;nan
9077;BME280;4574;51.072;17.174;2022-08-21T01:13:21;99754.03;;;20.37;nan
9077;BME280;4574;51.072;17.174;2022-08-21T01:15:54;99748.53;;;20.26;nan
9077;BME280;4574;51.072;17.174;2022-08-21T01:18:23;99751.94;;;20.15;nan
9077;BME280;4574;51.072;17.174;2022-08-21T01:21:12;99742.94;;;20.27;nan
9077;BME280;4574;51.072;17.174;2022-08-21T01:23:43;99744.28;;;20.18;nan
9077;BME280;4574;51.072;17.174;2022-08-21T01:26:13;99728.56;;;20.15;nan
9077;BME280;4574;51.072;17.174;2022-08-21T01:28:52;99706.75;;;19.99;nan
9077;BME280;4574;51.072;17.174;2022-08-21T01:31:24;99710.50;;;19.98;nan
9077;BME280;4574;51.072;17.174;2022-08-21T01:33:54;99700.84;;;19.90;nan
9077;BME280;4574;51.072;17.174;2022-08-21T01:36:25;99694.88;;;19.88;nan
9077;BME280;4574;51.072;17.174;2022-08-21T01:38:53;99692.31;;;20.00;nan
9077;BME280;4574;51.072;17.174;2022-08-21T01:41:22;99688.22;;;19.91;nan
9077;BME280;4574;51.072;17.174;2022-08-21T01:43:51;99689.00;;;19.98;nan
9077;BME280;4574;51.072;17.174;2022-08-21T01:46:19;99690.28;;;19.95;nan
9077;BME280;4574;51.072;17.174;2022-08-21T01:48:48;99683.84;;;19.96;nan
9077;BME280;4574;51.072;17.174;2022-08-21T01:51:16;99697.50;;;19.95;nan
9077;BME280;4574;51.072;17.174;2022-08-21T01:53:47;99692.91;;;20.02;nan
9077;BME280;4574;51.072;17.174;2022-08-21T01:56:16;99695.56;;;20.08;nan
9077;BME280;4574;51.072;17.174;2022-08-21T01:58:46;99692.44;;;20.11;nan
9077;BME280;4574;51.072;17.174;2022-08-21T02:01:15;99687.88;;;20.12;nan
9077;BME280;4574;51.072;17.174;2022-08-21T02:03:43;99694.69;;;20.14;nan
9077;BME280;4574;51.072;17.174;2022-08-21T02:06:13;99705.00;;;20.17;nan
9077;BME280;4574;51.072;17.174;2022-08-21T02:08:44;99687.94;;;20.05;nan
9077;BME280;4574;51.072;17.174;2022-08-21T02:11:14;99696.09;;;19.92;nan
9077;BME280;4574;51.072;17.174;2022-08-21T02:13:43;99691.63;;;19.80;nan
9077;BME280;4574;51.072;17.174;2022-08-21T02:16:12;99697.88;;;19.74;nan
9077;BME280;4574;51.072;17.174;2022-08-21T02:18:45;99687.88;;;19.81;nan
9077;BME280;4574;51.072;17.174;2022-08-21T02:21:14;99681.31;;;19.77;nan
9077;BME280;4574;51.072;17.174;2022-08-21T02:23:43;99676.81;;;19.71;nan
9077;BME280;4574;51.072;17.174;2022-08-21T02:26:13;99682.34;;;19.76;nan
9077;BME280;4574;51.072;17.174;2022-08-21T02:28:42;99688.25;;;19.60;nan
9077;BME280;4574;51.072;17.174;2022-08-21T02:31:11;99682.19;;;19.71;nan
9077;BME280;4574;51.072;17.174;2022-08-21T02:33:40;99665.28;;;19.64;nan
9077;BME280;4574;51.072;17.174;2022-08-21T02:36:09;99671.06;;;19.67;nan
9077;BME280;4574;51.072;17.174;2022-08-21T02:38:40;99679.31;;;19.66;nan
9077;BME280;4574;51.072;17.174;2022-08-21T02:41:11;99681.47;;;19.57;nan
9077;BME280;4574;51.072;17.174;2022-08-21T02:43:42;99675.06;;;19.58;nan
9077;BME280;4574;51.072;17.174;2022-08-21T02:46:12;99677.78;;;19.52;nan
9077;BME280;4574;51.072;17.174;2022-08-21T02:48:41;99677.34;;;19.55;nan
9077;BME280;4574;51.072;17.174;2022-08-21T02:51:12;99676.13;;;19.51;nan
9077;BME280;4574;51.072;17.174;2022-08-21T02:53:41;99668.34;;;19.43;nan
9077;BME280;4574;51.072;17.174;2022-08-21T02:56:12;99674.56;;;19.37;nan
9077;BME280;4574;51.072;17.174;2022-08-21T02:58:45;99685.44;;;19.48;nan
9077;BME280;4574;51.072;17.174;2022-08-21T03:01:14;99688.78;;;19.44;nan
9077;BME280;4574;51.072;17.174;2022-08-21T03:03:44;99684.22;;;19.44;nan
9077;BME280;4574;51.072;17.174;2022-08-21T03:06:14;99689.56;;;19.51;nan
9077;BME280;4574;51.072;17.174;2022-08-21T03:08:43;99695.97;;;19.50;nan
9077;BME280;4574;51.072;17.174;2022-08-21T03:11:13;99686.91;;;19.44;nan
9077;BME280;4574;51.072;17.174;2022-08-21T03:13:43;99690.31;;;19.27;nan
9077;BME280;4574;51.072;17.174;2022-08-21T03:16:12;99679.16;;;19.30;nan
9077;BME280;4574;51.072;17.174;2022-08-21T03:18:41;99673.19;;;19.28;nan
9077;BME280;4574;51.072;17.174;2022-08-21T03:21:09;99680.63;;;19.26;nan
9077;BME280;4574;51.072;17.174;2022-08-21T03:23:38;99682.94;;;19.16;nan
9077;BME280;4574;51.072;17.174;2022-08-21T03:26:08;99681.91;;;19.17;nan
9077;BME280;4574;51.072;17.174;2022-08-21T03:28:38;99684.97;;;19.20;nan
9077;BME280;4574;51.072;17.174;2022-08-21T03:31:08;99691.00;;;19.16;nan
9077;BME280;4574;51.072;17.174;2022-08-21T03:33:36;99686.28;;;19.05;nan
9077;BME280;4574;51.072;17.174;2022-08-21T03:36:06;99692.84;;;19.09;nan
9077;BME280;4574;51.072;17.174;2022-08-21T03:38:36;99696.16;;;19.04;nan
9077;BME280;4574;51.072;17.174;2022-08-21T03:41:05;99707.13;;;19.03;nan
9077;BME280;4574;51.072;17.174;2022-08-21T03:43:34;99705.28;;;18.97;nan
9077;BME280;4574;51.072;17.174;2022-08-21T03:46:04;99704.03;;;19.06;nan
9077;BME280;4574;51.072;17.174;2022-08-21T03:48:35;99700.72;;;19.04;nan
9077;BME280;4574;51.072;17.174;2022-08-21T03:51:05;99702.81;;;19.02;nan
9077;BME280;4574;51.072;17.174;2022-08-21T03:53:34;99703.41;;;19.04;nan
9077;BME280;4574;51.072;17.174;2022-08-21T03:56:04;99708.97;;;19.02;nan
9077;BME280;4574;51.072;17.174;2022-08-21T03:58:33;99715.78;;;19.05;nan
9077;BME280;4574;51.072;17.174;2022-08-21T04:01:06;99709.38;;;19.06;nan
9077;BME280;4574;51.072;17.174;2022-08-21T04:03:37;99706.91;;;19.04;nan
9077;BME280;4574;51.072;17.174;2022-08-21T04:06:06;99705.69;;;19.00;nan
9077;BME280;4574;51.072;17.174;2022-08-21T04:08:35;99714.75;;;18.99;nan
9077;BME280;4574;51.072;17.174;2022-08-21T04:11:05;99716.03;;;18.97;nan
9077;BME280;4574;51.072;17.174;2022-08-21T04:13:34;99721.78;;;19.00;nan
9077;BME280;4574;51.072;17.174;2022-08-21T04:16:09;99712.72;;;18.95;nan
9077;BME280;4574;51.072;17.174;2022-08-21T04:18:39;99713.16;;;18.92;nan
9077;BME280;4574;51.072;17.174;2022-08-21T04:21:09;99708.59;;;18.99;nan
9077;BME280;4574;51.072;17.174;2022-08-21T04:23:39;99717.25;;;19.01;nan
9077;BME280;4574;51.072;17.174;2022-08-21T04:26:07;99704.50;;;18.90;nan
9077;BME280;4574;51.072;17.174;2022-08-21T04:28:36;99717.31;;;18.88;nan
9077;BME280;4574;51.072;17.174;2022-08-21T04:31:04;99714.81;;;18.93;nan
9077;BME280;4574;51.072;17.174;2022-08-21T04:33:33;99706.16;;;18.91;nan
9077;BME280;4574;51.072;17.174;2022-08-21T04:36:05;99711.47;;;18.97;nan
9077;BME280;4574;51.072;17.174;2022-08-21T04:38:33;99720.59;;;18.90;nan
9077;BME280;4574;51.072;17.174;2022-08-21T04:41:03;99714.19;;;18.91;nan
9077;BME280;4574;51.072;17.174;2022-08-21T04:43:32;99703.03;;;18.94;nan
9077;BME280;4574;51.072;17.174;2022-08-21T04:46:01;99708.22;;;18.89;nan
9077;BME280;4574;51.072;17.174;2022-08-21T04:48:29;99701.41;;;18.87;nan
9077;BME280;4574;51.072;17.174;2022-08-21T04:51:00;99693.81;;;18.77;nan
9077;BME280;4574;51.072;17.174;2022-08-21T04:53:35;99702.66;;;18.84;nan
9077;BME280;4574;51.072;17.174;2022-08-21T04:56:08;99703.28;;;18.80;nan
9077;BME280;4574;51.072;17.174;2022-08-21T04:58:38;99712.59;;;18.77;nan
9077;BME280;4574;51.072;17.174;2022-08-21T05:01:12;99716.69;;;18.80;nan
9077;BME280;4574;51.072;17.174;2022-08-21T05:03:44;99712.59;;;18.77;nan
9077;BME280;4574;51.072;17.174;2022-08-21T05:06:16;99732.56;;;18.88;nan
9077;BME280;4574;51.072;17.174;2022-08-21T05:08:47;99738.97;;;18.87;nan
9077;BME280;4574;51.072;17.174;2022-08-21T05:11:16;99736.06;;;18.88;nan
9077;BME280;4574;51.072;17.174;2022-08-21T05:13:45;99734.63;;;18.86;nan
9077;BME280;4574;51.072;17.174;2022-08-21T05:16:14;99743.66;;;18.97;nan
9077;BME280;4574;51.072;17.174;2022-08-21T05:18:42;99741.22;;;18.96;nan
9077;BME280;4574;51.072;17.174;2022-08-21T05:21:11;99738.34;;;18.85;nan
9077;BME280;4574;51.072;17.174;2022-08-21T05:23:40;99740.84;;;18.86;nan
9077;BME280;4574;51.072;17.174;2022-08-21T05:26:11;99743.69;;;18.91;nan
9077;BME280;4574;51.072;17.174;2022-08-21T05:28:44;99750.72;;;18.86;nan
9077;BME280;4574;51.072;17.174;2022-08-21T05:31:12;99746.41;;;18.78;nan
9077;BME280;4574;51.072;17.174;2022-08-21T05:33:40;99747.03;;;18.80;nan
9077;BME280;4574;51.072;17.174;2022-08-21T05:36:09;99754.47;;;18.78;nan
9077;BME280;4574;51.072;17.174;2022-08-21T05:38:38;99752.22;;;18.75;nan
9077;BME280;4574;51.072;17.174;2022-08-21T05:41:06;99746.22;;;18.73;nan
9077;BME280;4574;51.072;17.174;2022-08-21T05:43:36;99745.63;;;18.71;nan
9077;BME280;4574;51.072;17.174;2022-08-21T05:46:06;99752.63;;;18.72;nan
9077;BME280;4574;51.072;17.174;2022-08-21T05:48:36;99755.69;;;18.82;nan
9077;BME280;4574;51.072;17.174;2022-08-21T05:51:06;99752.41;;;18.67;nan
9077;BME280;4574;51.072;17.174;2022-08-21T05:53:35;99771.41;;;18.72;nan
9077;BME280;4574;51.072;17.174;2022-08-21T05:56:05;99772.19;;;18.66;nan
9077;BME280;4574;51.072;17.174;2022-08-21T05:58:38;99770.16;;;18.55;nan
9077;BME280;4574;51.072;17.174;2022-08-21T06:01:07;99771.19;;;18.61;nan
9077;BME280;4574;51.072;17.174;2022-08-21T06:03:38;99773.88;;;18.54;nan
9077;BME280;4574;51.072;17.174;2022-08-21T06:06:07;99772.63;;;18.50;nan
9077;BME280;4574;51.072;17.174;2022-08-21T06:08:36;99769.34;;;18.48;nan
9077;BME280;4574;51.072;17.174;2022-08-21T06:11:05;99768.94;;;18.58;nan
9077;BME280;4574;51.072;17.174;2022-08-21T06:13:35;99768.09;;;18.57;nan
9077;BME280;4574;51.072;17.174;2022-08-21T06:16:08;99772.22;;;18.53;nan
9077;BME280;4574;51.072;17.174;2022-08-21T06:18:42;99781.53;;;18.51;nan
9077;BME280;4574;51.072;17.174;2022-08-21T06:21:11;99809.75;;;18.53;nan
9077;BME280;4574;51.072;17.174;2022-08-21T06:23:41;99811.63;;;18.53;nan
9077;BME280;4574;51.072;17.174;2022-08-21T06:26:11;99823.56;;;18.50;nan
9077;BME280;4574;51.072;17.174;2022-08-21T06:28:42;99823.38;;;18.52;nan
9077;BME280;4574;51.072;17.174;2022-08-21T06:31:16;99825.44;;;18.50;nan
9077;BME280;4574;51.072;17.174;2022-08-21T06:33:45;99824.59;;;18.49;nan
9077;BME280;4574;51.072;17.174;2022-08-21T06:36:14;99828.34;;;18.55;nan
9077;BME280;4574;51.072;17.174;2022-08-21T06:38:43;99815.31;;;18.45;nan
9077;BME280;4574;51.072;17.174;2022-08-21T06:41:17;99827.09;;;18.51;nan
9077;BME280;4574;51.072;17.174;2022-08-21T06:43:48;99819.66;;;18.46;nan
9077;BME280;4574;51.072;17.174;2022-08-21T06:46:18;99838.22;;;18.54;nan
9077;BME280;4574;51.072;17.174;2022-08-21T06:48:47;99832.88;;;18.48;nan
9077;BME280;4574;51.072;17.174;2022-08-21T06:51:17;99828.31;;;18.48;nan
9077;BME280;4574;51.072;17.174;2022-08-21T06:53:46;99835.75;;;18.46;nan
9077;BME280;4574;51.072;17.174;2022-08-21T06:56:14;99833.47;;;18.43;nan
9077;BME280;4574;51.072;17.174;2022-08-21T06:58:43;99851.22;;;18.44;nan
9077;BME280;4574;51.072;17.174;2022-08-21T07:01:12;99830.38;;;18.33;nan
9077;BME280;4574;51.072;17.174;2022-08-21T07:03:43;99847.28;;;18.40;nan
9077;BME280;4574;51.072;17.174;2022-08-21T07:06:11;99847.69;;;18.37;nan
9077;BME280;4574;51.072;17.174;2022-08-21T07:08:41;99855.13;;;18.29;nan
9077;BME280;4574;51.072;17.174;2022-08-21T07:11:12;99835.69;;;18.07;nan
9077;BME280;4574;51.072;17.174;2022-08-21T07:13:43;99858.16;;;18.00;nan
9077;BME280;4574;51.072;17.174;2022-08-21T07:16:11;99846.13;;;17.83;nan
9077;BME280;4574;51.072;17.174;2022-08-21T07:18:41;99851.66;;;17.75;nan
9077;BME280;4574;51.072;17.174;2022-08-21T07:21:11;99854.97;;;17.77;nan
9077;BME280;4574;51.072;17.174;2022-08-21T07:23:42;99842.59;;;17.69;nan
9077;BME280;4574;51.072;17.174;2022-08-21T07:26:13;99847.53;;;17.72;nan
9077;BME280;4574;51.072;17.174;2022-08-21T07:28:44;99850.63;;;17.69;nan
9077;BME280;4574;51.072;17.174;2022-08-21T07:31:14;99852.50;;;17.75;nan
9077;BME280;4574;51.072;17.174;2022-08-21T07:33:45;99846.19;;;17.43;nan
9077;BME280;4574;51.072;17.174;2022-08-21T07:36:14;99855.56;;;17.26;nan
9077;BME280;4574;51.072;17.174;2022-08-21T07:38:43;99862.09;;;17.17;nan
9077;BME280;4574;51.072;17.174;2022-08-21T07:41:14;99868.75;;;17.00;nan
9077;BME280;4574;51.072;17.174;2022-08-21T07:43:44;99879.81;;;16.97;nan
9077;BME280;4574;51.072;17.174;2022-08-21T07:46:13;99879.44;;;17.00;nan
9077;BME280;4574;51.072;17.174;2022-08-21T07:48:42;99879.44;;;17.00;nan
9077;BME280;4574;51.072;17.174;2022-08-21T07:51:14;99877.69;;;17.41;nan
9077;BME280;4574;51.072;17.174;2022-08-21T07:53:48;99890.72;;;17.56;nan
9077;BME280;4574;51.072;17.174;2022-08-21T07:56:17;99877.28;;;17.44;nan
9077;BME280;4574;51.072;17.174;2022-08-21T07:58:46;99872.56;;;17.52;nan
9077;BME280;4574;51.072;17.174;2022-08-21T08:01:15;99873.97;;;17.42;nan
9077;BME280;4574;51.072;17.174;2022-08-21T08:03:43;99887.09;;;17.70;nan
9077;BME280;4574;51.072;17.174;2022-08-21T08:06:14;99881.28;;;17.60;nan
9077;BME280;4574;51.072;17.174;2022-08-21T08:08:43;99889.03;;;17.49;nan
9077;BME280;4574;51.072;17.174;2022-08-21T08:11:13;99884.53;;;17.56;nan
9077;BME280;4574;51.072;17.174;2022-08-21T08:13:45;99893.13;;;17.45;nan
9077;BME280;4574;51.072;17.174;2022-08-21T08:16:15;99895.47;;;17.61;nan
9077;BME280;4574;51.072;17.174;2022-08-21T08:18:44;99890.69;;;17.50;nan
9077;BME280;4574;51.072;17.174;2022-08-21T08:21:15;99893.19;;;17.52;nan
9077;BME280;4574;51.072;17.174;2022-08-21T08:23:45;99892.78;;;17.61;nan
9077;BME280;4574;51.072;17.174;2022-08-21T08:26:14;99891.94;;;17.54;nan
9077;BME280;4574;51.072;17.174;2022-08-21T08:28:43;99885.84;;;17.66;nan
9077;BME280;4574;51.072;17.174;2022-08-21T08:31:13;99877.19;;;17.71;nan
9077;BME280;4574;51.072;17.174;2022-08-21T08:33:42;99873.88;;;17.62;nan
9077;BME280;4574;51.072;17.174;2022-08-21T08:36:16;99879.19;;;17.56;nan
9077;BME280;4574;51.072;17.174;2022-08-21T08:38:46;99885.78;;;17.53;nan
9077;BME280;4574;51.072;17.174;2022-08-21T08:41:17;99886.13;;;17.44;nan
9077;BME280;4574;51.072;17.174;2022-08-21T08:43:51;99888.78;;;17.38;nan
9077;BME280;4574;51.072;17.174;2022-08-21T08:46:25;99870.50;;;17.48;nan
9077;BME280;4574;51.072;17.174;2022-08-21T08:49:03;99899.41;;;17.65;nan
9077;BME280;4574;51.072;17.174;2022-08-21T08:51:40;99900.25;;;17.65;nan
9077;BME280;4574;51.072;17.174;2022-08-21T08:54:14;99901.53;;;17.82;nan
9077;BME280;4574;51.072;17.174;2022-08-21T08:56:44;99908.44;;;18.17;nan
9077;BME280;4574;51.072;17.174;2022-08-21T08:59:18;99905.84;;;18.37;nan
9077;BME280;4574;51.072;17.174;2022-08-21T09:01:47;99903.72;;;18.19;nan
9077;BME280;4574;51.072;17.174;2022-08-21T09:04:20;99901.91;;;18.26;nan
9077;BME280;4574;51.072;17.174;2022-08-21T09:06:59;99911.63;;;18.34;nan
9077;BME280;4574;51.072;17.174;2022-08-21T09:09:38;99910.16;;;18.31;nan
9077;BME280;4574;51.072;17.174;2022-08-21T09:12:15;99904.97;;;18.23;nan
9077;BME280;4574;51.072;17.174;2022-08-21T09:14:58;99916.94;;;18.27;nan
9077;BME280;4574;51.072;17.174;2022-08-21T09:17:41;99921.09;;;18.36;nan
9077;BME280;4574;51.072;17.174;2022-08-21T09:20:19;99921.97;;;18.50;nan
9077;BME280;4574;51.072;17.174;2022-08-21T09:22:59;99912.16;;;18.16;nan
9077;BME280;4574;51.072;17.174;2022-08-21T09:25:34;99926.34;;;18.04;nan
9077;BME280;4574;51.072;17.174;2022-08-21T09:28:09;99912.56;;;18.13;nan
9077;BME280;4574;51.072;17.174;2022-08-21T09:30:43;99926.06;;;18.33;nan
9077;BME280;4574;51.072;17.174;2022-08-21T09:33:18;99923.16;;;18.28;nan
9077;BME280;4574;51.072;17.174;2022-08-21T09:35:52;99926.78;;;18.20;nan
9077;BME280;4574;51.072;17.174;2022-08-21T09:38:29;99922.31;;;18.27;nan
9077;BME280;4574;51.072;17.174;2022-08-21T09:41:02;99928.84;;;18.18;nan
9077;BME280;4574;51.072;17.174;2022-08-21T09:43:32;99910.13;;;18.25;nan
9077;BME280;4574;51.072;17.174;2022-08-21T09:46:08;99923.47;;;18.05;nan
9077;BME280;4574;51.072;17.174;2022-08-21T09:48:43;99926.34;;;18.10;nan
9077;BME280;4574;51.072;17.174;2022-08-21T09:51:15;99909.06;;;18.13;nan
9077;BME280;4574;51.072;17.174;2022-08-21T09:53:48;99911.16;;;18.24;nan
9077;BME280;4574;51.072;17.174;2022-08-21T09:56:26;99923.97;;;18.28;nan
9077;BME280;4574;51.072;17.174;2022-08-21T09:59:15;99923.06;;;18.02;nan
9077;BME280;4574;51.072;17.174;2022-08-21T10:01:47;99925.50;;;18.03;nan
9077;BME280;4574;51.072;17.174;2022-08-21T10:04:21;99919.75;;;18.06;nan
9077;BME280;4574;51.072;17.174;2022-08-21T10:06:50;99923.22;;;17.94;nan
9077;BME280;4574;51.072;17.174;2022-08-21T10:09:22;99918.06;;;17.92;nan
9077;BME280;4574;51.072;17.174;2022-08-21T10:11:58;99929.63;;;17.99;nan
9077;BME280;4574;51.072;17.174;2022-08-21T10:14:49;99933.78;;;18.08;nan
9077;BME280;4574;51.072;17.174;2022-08-21T10:17:26;99930.88;;;18.03;nan
9077;BME280;4574;51.072;17.174;2022-08-21T10:20:02;99919.13;;;17.24;nan
9077;BME280;4574;51.072;17.174;2022-08-21T10:22:38;99931.16;;;17.07;nan
9077;BME280;4574;51.072;17.174;2022-08-21T10:25:16;99932.09;;;16.72;nan
9077;BME280;4574;51.072;17.174;2022-08-21T10:27:52;99943.16;;;16.69;nan
9077;BME280;4574;51.072;17.174;2022-08-21T10:30:30;99934.13;;;16.70;nan
9077;BME280;4574;51.072;17.174;2022-08-21T10:33:11;99926.50;;;16.67;nan
9077;BME280;4574;51.072;17.174;2022-08-21T10:35:47;99926.06;;;16.63;nan
9077;BME280;4574;51.072;17.174;2022-08-21T10:38:49;99921.28;;;16.59;nan
9077;BME280;4574;51.072;17.174;2022-08-21T10:44:43;99914.47;;;16.77;nan
9077;BME280;4574;51.072;17.174;2022-08-21T10:47:18;99925.84;;;16.65;nan
9077;BME280;4574;51.072;17.174;2022-08-21T10:50:00;99918.69;;;16.65;nan
9077;BME280;4574;51.072;17.174;2022-08-21T10:52:51;99919.63;;;16.58;nan
9077;BME280;4574;51.072;17.174;2022-08-21T10:55:26;99921.91;;;16.61;nan
9077;BME280;4574;51.072;17.174;2022-08-21T10:58:04;99920.25;;;16.60;nan
9077;BME280;4574;51.072;17.174;2022-08-21T11:00:41;99928.09;;;16.61;nan
9077;BME280;4574;51.072;17.174;2022-08-21T11:03:15;99931.97;;;16.59;nan
9077;BME280;4574;51.072;17.174;2022-08-21T11:05:47;99924.84;;;16.66;nan
9077;BME280;4574;51.072;17.174;2022-08-21T11:08:22;99927.13;;;16.69;nan
9077;BME280;4574;51.072;17.174;2022-08-21T11:10:55;99932.09;;;16.72;nan
9077;BME280;4574;51.072;17.174;2022-08-21T11:13:38;99932.28;;;16.70;nan
9077;BME280;4574;51.072;17.174;2022-08-21T11:16:16;99933.75;;;16.73;nan
9077;BME280;4574;51.072;17.174;2022-08-21T11:18:51;99925.53;;;16.74;nan
9077;BME280;4574;51.072;17.174;2022-08-21T11:21:32;99932.97;;;16.79;nan
9077;BME280;4574;51.072;17.174;2022-08-21T11:24:17;99926.34;;;16.75;nan
9077;BME280;4574;51.072;17.174;2022-08-21T11:26:53;99935.47;;;16.80;nan
9077;BME280;4574;51.072;17.174;2022-08-21T11:29:28;99930.53;;;17.32;nan
9077;BME280;4574;51.072;17.174;2022-08-21T11:32:09;99933.22;;;17.72;nan
9077;BME280;4574;51.072;17.174;2022-08-21T11:34:54;99928.16;;;17.90;nan
9077;BME280;4574;51.072;17.174;2022-08-21T11:37:38;99928.81;;;17.99;nan
9077;BME280;4574;51.072;17.174;2022-08-21T11:40:27;99927.59;;;18.08;nan
9077;BME280;4574;51.072;17.174;2022-08-21T11:43:09;99930.69;;;18.11;nan
9077;BME280;4574;51.072;17.174;2022-08-21T11:45:45;99924.00;;;18.35;nan
9077;BME280;4574;51.072;17.174;2022-08-21T11:48:25;99935.53;;;18.48;nan
9077;BME280;4574;51.072;17.174;2022-08-21T11:50:56;99931.28;;;18.00;nan
9077;BME280;4574;51.072;17.174;2022-08-21T11:53:29;99936.53;;;17.81;nan
9077;BME280;4574;51.072;17.174;2022-08-21T11:56:03;99934.41;;;17.63;nan
9077;BME280;4574;51.072;17.174;2022-08-21T11:58:38;99929.97;;;17.43;nan
9077;BME280;4574;51.072;17.174;2022-08-21T12:01:11;99933.03;;;17.40;nan
9077;BME280;4574;51.072;17.174;2022-08-21T12:03:44;99929.56;;;17.40;nan
9077;BME280;4574;51.072;17.174;2022-08-21T12:06:29;99937.88;;;17.30;nan
9077;BME280;4574;51.072;17.174;2022-08-21T12:09:00;99939.50;;;17.25;nan
9077;BME280;4574;51.072;17.174;2022-08-21T12:11:29;99939.03;;;17.15;nan
9077;BME280;4574;51.072;17.174;2022-08-21T12:14:00;99940.44;;;17.11;nan
9077;BME280;4574;51.072;17.174;2022-08-21T12:16:31;99940.59;;;17.03;nan
9077;BME280;4574;51.072;17.174;2022-08-21T12:19:06;99943.84;;;16.98;nan
9077;BME280;4574;51.072;17.174;2022-08-21T12:21:48;99948.94;;;16.93;nan
9077;BME280;4574;51.072;17.174;2022-08-21T12:24:20;99948.94;;;16.93;nan
9077;BME280;4574;51.072;17.174;2022-08-21T12:26:50;99945.41;;;16.93;nan
9077;BME280;4574;51.072;17.174;2022-08-21T12:29:25;99944.63;;;16.99;nan
9077;BME280;4574;51.072;17.174;2022-08-21T12:31:58;99934.84;;;17.06;nan
9077;BME280;4574;51.072;17.174;2022-08-21T12:34:34;99930.53;;;17.05;nan
9077;BME280;4574;51.072;17.174;2022-08-21T12:37:06;99926.38;;;17.02;nan
9077;BME280;4574;51.072;17.174;2022-08-21T12:39:37;99916.56;;;17.09;nan
9077;BME280;4574;51.072;17.174;2022-08-21T12:42:14;99937.00;;;17.17;nan
9077;BME280;4574;51.072;17.174;2022-08-21T12:44:48;99924.63;;;17.16;nan
9077;BME280;4574;51.072;17.174;2022-08-21T12:47:25;99931.25;;;17.20;nan
9077;BME280;4574;51.072;17.174;2022-08-21T12:50:01;99933.28;;;17.18;nan
9077;BME280;4574;51.072;17.174;2022-08-21T12:52:34;99929.59;;;17.19;nan
9077;BME280;4574;51.072;17.174;2022-08-21T12:55:07;99923.84;;;17.22;nan
9077;BME280;4574;51.072;17.174;2022-08-21T12:57:36;99918.91;;;17.19;nan
9077;BME280;4574;51.072;17.174;2022-08-21T13:00:10;99916.47;;;17.24;nan
9077;BME280;4574;51.072;17.174;2022-08-21T13:02:45;99921.41;;;17.27;nan
9077;BME280;4574;51.072;17.174;2022-08-21T13:05:26;99939.53;;;17.31;nan
9077;BME280;4574;51.072;17.174;2022-08-21T13:07:55;99931.38;;;17.33;nan
9077;BME280;4574;51.072;17.174;2022-08-21T13:10:26;99947.78;;;17.30;nan
9077;BME280;4574;51.072;17.174;2022-08-21T13:12:57;99940.78;;;17.29;nan
9077;BME280;4574;51.072;17.174;2022-08-21T13:15:29;99935.56;;;17.21;nan
9077;BME280;4574;51.072;17.174;2022-08-21T13:18:01;99942.81;;;17.27;nan
9077;BME280;4574;51.072;17.174;2022-08-21T13:20:32;99929.03;;;17.30;nan
9077;BME280;4574;51.072;17.174;2022-08-21T13:23:03;99933.19;;;17.32;nan
9077;BME280;4574;51.072;17.174;2022-08-21T13:25:42;99935.56;;;17.48;nan
9077;BME280;4574;51.072;17.174;2022-08-21T13:28:13;99933.00;;;17.67;nan
9077;BME280;4574;51.072;17.174;2022-08-21T13:30:44;99933.06;;;17.80;nan
9077;BME280;4574;51.072;17.174;2022-08-21T13:33:18;99930.47;;;18.00;nan
9077;BME280;4574;51.072;17.174;2022-08-21T13:35:49;99946.28;;;17.88;nan
9077;BME280;4574;51.072;17.174;2022-08-21T13:38:21;99940.25;;;17.80;nan
9077;BME280;4574;51.072;17.174;2022-08-21T13:40:55;99932.19;;;17.73;nan
9077;BME280;4574;51.072;17.174;2022-08-21T13:43:27;99933.22;;;17.72;nan
9077;BME280;4574;51.072;17.174;2022-08-21T13:45:56;99932.81;;;17.75;nan
9077;BME280;4574;51.072;17.174;2022-08-21T13:48:29;99937.78;;;17.78;nan
9077;BME280;4574;51.072;17.174;2022-08-21T13:50:59;99944.78;;;17.79;nan
9077;BME280;4574;51.072;17.174;2022-08-21T13:53:34;99943.94;;;17.79;nan
9077;BME280;4574;51.072;17.174;2022-08-21T13:56:04;99942.28;;;17.78;nan
9077;BME280;4574;51.072;17.174;2022-08-21T13:58:44;99943.94;;;17.79;nan
9077;BME280;4574;51.072;17.174;2022-08-21T14:01:19;99932.44;;;17.85;nan